createdAt,value
2022-10-12T00:00:02.626Z,101238.52
2022-10-12T00:03:21.388Z,101248.77
2022-10-12T00:06:12.143Z,101246.31
2022-10-12T00:09:00.002Z,101248.36
2022-10-12T00:11:48.541Z,101245.69
2022-10-12T00:14:38.050Z,101246.31
2022-10-12T00:17:26.703Z,101242.61
2022-10-12T00:20:14.848Z,101246.09
2022-10-12T00:23:03.710Z,101239.72
2022-10-12T00:25:51.894Z,101236.03
2022-10-12T00:28:40.537Z,101231.30
2022-10-12T00:31:30.489Z,101240.97
2022-10-12T00:34:19.726Z,101243.47
2022-10-12T00:37:08.451Z,101244.27
2022-10-12T00:39:56.815Z,101249.63
2022-10-12T00:42:45.111Z,101243.47
2022-10-12T00:45:33.201Z,101240.17
2022-10-12T00:48:22.124Z,101241.81
2022-10-12T00:51:11.987Z,101231.13
2022-10-12T00:54:06.249Z,101243.65
2022-10-12T00:56:56.943Z,101240.17
2022-10-12T00:59:49.605Z,101247.34
2022-10-12T01:02:38.711Z,101240.17
2022-10-12T01:05:28.451Z,101246.32
2022-10-12T01:08:16.530Z,101250.02
2022-10-12T01:11:05.287Z,101251.67
2022-10-12T01:13:54.253Z,101249.00
2022-10-12T01:16:53.042Z,101250.02
2022-10-12T01:20:12.288Z,101248.38
2022-10-12T01:23:24.262Z,101243.02
2022-10-12T01:26:44.240Z,101245.70
2022-10-12T01:30:06.700Z,101244.05
2022-10-12T01:33:06.528Z,101243.42
2022-10-12T01:36:03.544Z,101247.96
2022-10-12T01:38:59.735Z,101252.68
2022-10-12T01:41:54.059Z,101254.52
2022-10-12T01:44:43.002Z,101253.08
2022-10-12T01:47:32.113Z,101256.78
2022-10-12T01:50:22.788Z,101259.01
2022-10-12T01:53:21.119Z,101262.91
2022-10-12T01:56:18.827Z,101260.42
2022-10-12T01:59:16.818Z,101265.98
2022-10-12T02:02:17.520Z,101261.84
2022-10-12T02:05:11.933Z,101263.70
2022-10-12T02:08:08.415Z,101258.55
2022-10-12T02:11:01.037Z,101261.61
2022-10-12T02:13:55.123Z,101264.50
2022-10-12T02:16:48.037Z,101265.52
2022-10-12T02:19:40.247Z,101271.05
2022-10-12T02:22:34.098Z,101263.24
2022-10-12T02:25:26.118Z,101267.95
2022-10-12T02:28:17.123Z,101262.80
2022-10-12T02:31:18.763Z,101260.34
2022-10-12T02:34:11.882Z,101261.54
2022-10-12T02:37:06.857Z,101259.08
2022-10-12T02:40:02.215Z,101264.60
2022-10-12T02:43:09.722Z,101267.67
2022-10-12T02:46:02.014Z,101270.31
2022-10-12T02:48:52.488Z,101274.81
2022-10-12T02:51:43.708Z,101274.00
2022-10-12T02:54:31.899Z,101274.00
2022-10-12T02:57:19.957Z,101279.73
2022-10-12T03:00:10.492Z,101289.58
2022-10-12T03:02:58.937Z,101283.61
2022-10-12T03:05:47.426Z,101294.05
2022-10-12T03:08:36.797Z,101297.70
2022-10-12T03:11:25.264Z,101298.87
2022-10-12T03:14:16.413Z,101295.56
2022-10-12T03:17:04.978Z,101294.51
2022-10-12T03:19:53.368Z,101298.37
2022-10-12T03:22:42.394Z,101306.14
2022-10-12T03:25:30.369Z,101301.61
2022-10-12T03:28:19.292Z,101297.49
2022-10-12T03:31:07.689Z,101299.95
2022-10-12T03:33:55.749Z,101303.47
2022-10-12T03:36:44.273Z,101294.62
2022-10-12T03:39:32.242Z,101297.49
2022-10-12T03:42:20.482Z,101301.99
2022-10-12T03:45:10.549Z,101300.34
2022-10-12T03:48:03.746Z,101304.03
2022-10-12T03:50:53.948Z,101306.91
2022-10-12T03:53:45.579Z,101311.78
2022-10-12T03:56:35.414Z,101295.13
2022-10-12T03:59:23.703Z,101300.68
2022-10-12T04:02:16.722Z,101303.52
2022-10-12T04:05:08.207Z,101306.40
2022-10-12T04:07:56.139Z,101303.73
2022-10-12T04:10:45.553Z,101311.73
2022-10-12T04:13:33.624Z,101306.58
2022-10-12T04:16:23.352Z,101311.91
2022-10-12T04:19:14.677Z,101308.44
2022-10-12T04:22:19.086Z,101312.12
2022-10-12T04:25:10.098Z,101307.80
2022-10-12T04:27:58.045Z,101306.78
2022-10-12T04:31:05.733Z,101305.13
2022-10-12T04:34:03.073Z,101309.62
2022-10-12T04:36:51.211Z,101317.84
2022-10-12T04:39:39.153Z,101310.84
2022-10-12T04:42:28.178Z,101310.00
2022-10-12T04:45:16.477Z,101312.67
2022-10-12T04:48:05.103Z,101321.52
2022-10-12T04:50:54.168Z,101325.20
2022-10-12T04:53:42.478Z,101328.89
2022-10-12T04:56:32.328Z,101332.37
2022-10-12T04:59:20.770Z,101328.25
2022-10-12T05:02:12.928Z,101329.91
2022-10-12T05:05:01.276Z,101330.92
2022-10-12T05:07:49.295Z,101339.94
2022-10-12T05:10:38.334Z,101346.09
2022-10-12T05:13:28.486Z,101343.42
2022-10-12T05:16:17.720Z,101347.95
2022-10-12T05:19:06.036Z,101350.41
2022-10-12T05:21:55.286Z,101352.06
2022-10-12T05:24:43.285Z,101358.87
2022-10-12T05:27:31.770Z,101357.02
2022-10-12T05:30:19.986Z,101352.53
2022-10-12T05:33:08.874Z,101358.87
2022-10-12T05:35:57.559Z,101373.67
2022-10-12T05:38:46.233Z,101374.69
2022-10-12T05:41:34.369Z,101374.52
2022-10-12T05:44:23.376Z,101381.30
2022-10-12T05:47:12.669Z,101391.16
2022-10-12T05:50:01.468Z,101390.32
2022-10-12T05:52:49.735Z,101397.31
2022-10-12T05:55:38.192Z,101402.27
2022-10-12T05:58:28.879Z,101402.10
2022-10-12T06:01:17.278Z,101408.25
2022-10-12T06:04:05.898Z,101416.90
2022-10-12T06:06:54.257Z,101414.86
2022-10-12T06:09:44.341Z,101416.98
2022-10-12T06:12:32.639Z,101420.29
2022-10-12T06:15:20.719Z,101424.41
2022-10-12T06:18:13.476Z,101423.05
2022-10-12T06:21:21.485Z,101432.33
2022-10-12T06:24:11.877Z,101431.95
2022-10-12T06:26:59.985Z,101436.06
2022-10-12T06:29:48.054Z,101432.88
2022-10-12T06:32:38.473Z,101438.64
2022-10-12T06:35:27.032Z,101437.25
2022-10-12T06:38:17.248Z,101431.52
2022-10-12T06:41:06.328Z,101437.75
2022-10-12T06:43:55.314Z,101438.00
2022-10-12T06:46:44.296Z,101451.61
2022-10-12T06:49:33.017Z,101437.48
2022-10-12T06:52:21.349Z,101447.41
2022-10-12T06:55:11.694Z,101438.44
2022-10-12T06:58:00.192Z,101443.82
2022-10-12T07:00:48.762Z,101443.67
2022-10-12T07:03:37.240Z,101444.76
2022-10-12T07:06:25.334Z,101446.45
2022-10-12T07:09:19.837Z,101440.95
2022-10-12T07:12:14.312Z,101439.77
2022-10-12T07:15:17.920Z,101442.91
2022-10-12T07:18:39.714Z,101441.55
2022-10-12T07:21:35.595Z,101447.54
2022-10-12T07:24:23.925Z,101449.27
2022-10-12T07:27:13.262Z,101446.42
2022-10-12T07:30:02.349Z,101448.09
2022-10-12T08:09:44.650Z,101444.78
2022-10-12T08:28:01.156Z,101461.03
2022-10-12T08:31:00.758Z,101461.00
2022-10-12T08:38:09.456Z,101466.75
2022-10-12T08:41:16.296Z,101464.86
2022-10-12T08:53:05.268Z,101460.82
2022-10-12T08:56:29.922Z,101466.78
2022-10-12T09:00:25.348Z,101464.65
2022-10-12T09:03:28.009Z,101474.11
2022-10-12T09:06:21.997Z,101461.86
2022-10-12T09:09:33.673Z,101463.23
2022-10-12T09:12:33.963Z,101471.64
2022-10-12T09:15:28.787Z,101459.58
2022-10-12T09:18:21.487Z,101455.57
2022-10-12T09:21:16.760Z,101457.55
2022-10-12T09:25:02.564Z,101450.63
2022-10-12T09:27:53.407Z,101449.91
2022-10-12T09:30:49.244Z,101452.09
2022-10-12T09:33:45.486Z,101450.16
2022-10-12T09:36:36.378Z,101453.36
2022-10-12T09:39:30.899Z,101449.11
2022-10-12T09:42:19.408Z,101450.39
2022-10-12T09:45:17.712Z,101446.24
2022-10-12T09:48:25.827Z,101449.98
2022-10-12T09:51:18.278Z,101446.89
2022-10-12T09:54:25.140Z,101447.63
2022-10-12T10:37:45.459Z,101421.63
2022-10-12T10:40:35.552Z,101417.83
2022-10-12T10:43:28.050Z,101407.16
2022-10-12T10:46:22.946Z,101407.88
2022-10-12T10:49:25.020Z,101411.53
2022-10-12T10:52:23.939Z,101401.84
2022-10-12T10:55:20.907Z,101392.22
2022-10-12T10:58:29.425Z,101395.89
2022-10-12T11:01:25.084Z,101388.63
2022-10-12T11:04:22.528Z,101389.77
2022-10-12T11:07:25.304Z,101380.34
2022-10-12T11:10:25.142Z,101381.73
2022-10-12T11:13:20.183Z,101377.72
2022-10-12T11:16:25.405Z,101377.45
2022-10-12T11:19:30.526Z,101383.70
2022-10-12T11:22:24.206Z,101378.28
2022-10-12T11:25:23.814Z,101376.64
2022-10-12T11:28:16.565Z,101372.03
2022-10-12T11:31:07.572Z,101374.17
2022-10-12T11:37:48.174Z,101373.84
2022-10-12T11:43:56.414Z,101373.02
2022-10-12T11:46:49.572Z,101363.34
2022-10-12T11:49:48.463Z,101356.34
2022-10-12T11:52:41.407Z,101359.05
2022-10-12T11:55:42.266Z,101354.98
2022-10-12T11:58:55.782Z,101361.47
2022-10-12T12:01:58.485Z,101354.70
2022-10-12T12:04:52.084Z,101353.39
2022-10-12T12:07:46.992Z,101354.20
2022-10-12T12:11:04.274Z,101354.77
2022-10-12T12:14:43.513Z,101352.33
2022-10-12T12:17:38.537Z,101355.55
2022-10-12T12:21:04.796Z,101353.34
2022-10-12T12:23:57.151Z,101355.78
2022-10-12T12:26:52.472Z,101345.51
2022-10-12T12:29:41.100Z,101350.12
2022-10-12T12:32:45.395Z,101346.84
2022-10-12T12:35:40.001Z,101345.45
2022-10-12T12:38:53.375Z,101355.48
2022-10-12T12:49:24.846Z,101346.77
2022-10-12T12:52:51.736Z,101347.27
2022-10-12T12:56:29.116Z,101350.27
2022-10-12T13:03:58.576Z,101346.84
2022-10-12T13:07:35.189Z,101340.36
2022-10-12T13:11:00.900Z,101341.48
2022-10-12T13:14:05.573Z,101339.08
2022-10-12T13:17:31.921Z,101348.27
2022-10-12T13:20:27.738Z,101344.49
2022-10-12T13:23:24.048Z,101346.40
2022-10-12T13:26:26.266Z,101341.55
2022-10-12T13:29:23.515Z,101338.00
2022-10-12T13:32:28.279Z,101341.78
2022-10-12T13:35:33.925Z,101342.05
2022-10-12T13:38:27.007Z,101340.41
2022-10-12T13:41:25.475Z,101342.05
2022-10-12T13:44:34.374Z,101341.22
2022-10-12T13:47:27.807Z,101342.56
2022-10-12T13:50:21.444Z,101338.45
2022-10-12T13:53:16.630Z,101343.81
2022-10-12T13:56:14.654Z,101337.51
2022-10-12T13:59:18.633Z,101340.96
2022-10-12T14:02:25.643Z,101340.91
2022-10-12T14:05:20.653Z,101338.41
2022-10-12T14:08:23.818Z,101335.88
2022-10-12T14:11:17.661Z,101337.45
2022-10-12T14:14:17.540Z,101338.72
2022-10-12T14:17:16.019Z,101336.18
2022-10-12T14:20:26.970Z,101337.18
2022-10-12T14:23:20.461Z,101340.66
2022-10-12T14:44:35.983Z,101331.84
2022-10-12T14:47:46.250Z,101345.28
2022-10-12T14:50:44.009Z,101352.73
2022-10-12T14:53:34.659Z,101346.41
2022-10-12T14:56:25.595Z,101349.84
2022-10-12T14:59:14.129Z,101355.16
2022-10-12T15:02:09.822Z,101358.61
2022-10-12T15:04:59.037Z,101355.81
2022-10-12T15:07:47.708Z,101350.55
2022-10-12T15:10:37.286Z,101347.53
2022-10-12T15:13:25.121Z,101348.24
2022-10-12T15:16:36.458Z,101349.21
2022-10-12T15:19:33.865Z,101352.05
2022-10-12T15:22:24.510Z,101350.31
2022-10-12T15:25:20.350Z,101347.16
2022-10-12T15:28:08.673Z,101345.69
2022-10-12T15:31:16.945Z,101350.41
2022-10-12T15:34:12.529Z,101353.48
2022-10-12T15:37:00.262Z,101354.08
2022-10-12T15:39:48.507Z,101357.14
2022-10-12T15:42:38.164Z,101355.87
2022-10-12T15:45:28.912Z,101359.99
2022-10-12T15:48:22.425Z,101357.04
2022-10-12T15:51:16.827Z,101356.81
2022-10-12T15:54:05.312Z,101371.12
2022-10-12T15:56:53.996Z,101357.64
2022-10-12T15:59:42.471Z,101368.41
2022-10-12T16:02:30.404Z,101363.23
2022-10-12T16:05:21.841Z,101364.86
2022-10-12T16:08:10.092Z,101367.52
2022-10-12T16:10:58.385Z,101368.27
2022-10-12T16:13:53.865Z,101366.59
2022-10-12T16:16:45.014Z,101365.94
2022-10-12T16:19:33.644Z,101372.09
2022-10-12T16:22:22.417Z,101379.28
2022-10-12T16:25:13.427Z,101374.66
2022-10-12T16:28:01.150Z,101381.83
2022-10-12T16:30:50.476Z,101376.36
2022-10-12T16:33:38.855Z,101378.70
2022-10-12T16:36:27.525Z,101378.63
2022-10-12T16:39:15.888Z,101376.67
2022-10-12T16:42:04.020Z,101371.17
2022-10-12T16:44:52.367Z,101378.91
2022-10-12T16:47:42.950Z,101377.77
2022-10-12T16:50:31.519Z,101377.44
2022-10-12T16:57:11.707Z,101381.52
2022-10-12T17:00:00.461Z,101379.28
2022-10-12T17:03:10.932Z,101389.20
2022-10-12T17:06:10.183Z,101386.16
2022-10-12T17:09:00.013Z,101385.61
2022-10-12T17:11:48.934Z,101381.52
2022-10-12T17:14:37.321Z,101388.97
2022-10-12T17:17:27.544Z,101392.92
2022-10-12T17:20:17.142Z,101395.03
2022-10-12T17:23:05.436Z,101390.09
2022-10-12T17:25:59.546Z,101395.48
2022-10-12T17:28:47.857Z,101394.06
2022-10-12T17:31:36.266Z,101397.16
2022-10-12T17:34:26.193Z,101395.31
2022-10-12T17:37:15.151Z,101401.70
2022-10-12T17:40:03.645Z,101395.48
2022-10-12T17:42:52.138Z,101394.88
2022-10-12T17:45:42.072Z,101397.96
2022-10-12T17:48:31.229Z,101399.63
2022-10-12T17:51:19.675Z,101405.19
2022-10-12T17:54:08.897Z,101401.86
2022-10-12T17:56:57.815Z,101401.03
2022-10-12T17:59:45.861Z,101396.70
2022-10-12T18:02:34.075Z,101397.52
2022-10-12T18:05:22.243Z,101392.13
2022-10-12T18:08:10.376Z,101393.78
2022-10-12T18:11:00.743Z,101400.75
2022-10-12T18:13:50.794Z,101398.70
2022-10-12T18:16:39.643Z,101401.15
2022-10-12T18:19:27.785Z,101404.62
2022-10-12T18:22:16.283Z,101402.54
2022-10-12T18:25:07.213Z,101403.16
2022-10-12T18:27:55.583Z,101401.91
2022-10-12T18:30:49.482Z,101407.00
2022-10-12T18:33:37.603Z,101402.23
2022-10-12T18:36:26.831Z,101397.48
2022-10-12T18:39:15.299Z,101400.74
2022-10-12T18:42:03.540Z,101402.38
2022-10-12T18:44:52.126Z,101406.47
2022-10-12T18:47:40.768Z,101404.38
2022-10-12T18:50:29.168Z,101416.70
2022-10-12T18:53:17.529Z,101405.95
2022-10-12T18:56:07.178Z,101400.36
2022-10-12T18:58:56.417Z,101411.66
2022-10-12T19:01:45.800Z,101414.27
2022-10-12T19:04:34.150Z,101420.22
2022-10-12T19:07:22.100Z,101417.48
2022-10-12T19:10:11.412Z,101411.08
2022-10-12T19:12:59.842Z,101413.30
2022-10-12T19:15:48.038Z,101406.69
2022-10-12T19:18:37.946Z,101406.44
2022-10-12T19:21:27.261Z,101406.83
2022-10-12T19:24:16.422Z,101405.56
2022-10-12T19:27:04.517Z,101406.16
2022-10-12T19:29:53.306Z,101407.56
2022-10-12T19:32:42.378Z,101407.48
2022-10-12T19:35:30.825Z,101401.08
2022-10-12T19:38:19.974Z,101412.32
2022-10-12T19:41:09.346Z,101413.69
2022-10-12T19:43:58.537Z,101409.75
2022-10-12T19:46:48.292Z,101413.64
2022-10-12T19:49:38.448Z,101415.20
2022-10-12T19:52:30.474Z,101406.73
2022-10-12T19:55:19.061Z,101408.98
2022-10-12T19:58:07.501Z,101408.72
2022-10-12T20:01:01.843Z,101415.45
2022-10-12T20:03:50.857Z,101413.16
2022-10-12T20:06:39.708Z,101422.55
2022-10-12T20:09:30.539Z,101415.94
2022-10-12T20:12:21.104Z,101419.99
2022-10-12T20:15:11.847Z,101422.39
2022-10-12T20:18:00.378Z,101407.78
2022-10-12T20:20:48.867Z,101421.48
2022-10-12T20:23:38.951Z,101414.88
2022-10-12T20:26:28.519Z,101417.27
2022-10-12T20:29:16.549Z,101416.80
2022-10-12T20:32:06.018Z,101413.86
2022-10-12T20:34:55.598Z,101412.58
2022-10-12T20:37:43.633Z,101412.14
2022-10-12T20:40:31.717Z,101409.20
2022-10-12T20:43:20.170Z,101420.23
2022-10-12T20:46:13.952Z,101415.44
2022-10-12T20:49:04.075Z,101419.69
2022-10-12T20:51:53.599Z,101420.05
2022-10-12T20:54:41.817Z,101426.11
2022-10-12T20:57:30.263Z,101422.16
2022-10-12T21:00:19.444Z,101424.55
2022-10-12T21:03:07.530Z,101424.06
2022-10-12T21:05:55.892Z,101420.30
2022-10-12T21:08:48.433Z,101419.18
2022-10-12T21:11:37.872Z,101417.08
2022-10-12T21:14:26.167Z,101421.08
2022-10-12T21:17:14.470Z,101430.44
2022-10-12T21:20:02.871Z,101430.16
2022-10-12T21:22:51.181Z,101425.34
2022-10-12T21:25:39.421Z,101429.57
2022-10-12T21:28:27.487Z,101432.11
2022-10-12T21:31:16.522Z,101427.50
2022-10-12T21:34:07.236Z,101427.04
2022-10-12T21:36:55.224Z,101432.72
2022-10-12T21:39:43.141Z,101433.43
2022-10-12T21:42:31.091Z,101437.45
2022-10-12T21:45:19.276Z,101437.97
2022-10-12T21:48:08.013Z,101435.01
2022-10-12T21:50:58.615Z,101433.70
2022-10-12T21:53:47.364Z,101433.41
2022-10-12T21:56:37.133Z,101434.76
2022-10-12T21:59:26.048Z,101436.11
2022-10-12T22:02:14.309Z,101427.67
2022-10-12T22:05:03.720Z,101434.34
2022-10-12T22:07:51.811Z,101427.72
2022-10-12T22:10:40.489Z,101423.55
2022-10-12T22:13:29.487Z,101417.93
2022-10-12T22:16:19.781Z,101413.96
2022-10-12T22:19:13.665Z,101422.28
2022-10-12T22:22:01.457Z,101423.64
2022-10-12T22:24:50.177Z,101427.64
2022-10-12T22:27:38.078Z,101427.17
2022-10-12T22:30:25.960Z,101422.20
2022-10-12T22:33:14.064Z,101426.21
2022-10-12T22:36:04.818Z,101429.03
2022-10-12T22:38:53.254Z,101431.22
2022-10-12T22:41:41.036Z,101439.54
2022-10-12T22:44:29.148Z,101434.56
2022-10-12T22:47:19.075Z,101431.55
2022-10-12T22:50:08.303Z,101433.56
2022-10-12T22:52:56.469Z,101432.09
2022-10-12T22:55:46.283Z,101429.77
2022-10-12T22:58:35.346Z,101425.61
2022-10-12T23:01:24.654Z,101434.92
2022-10-12T23:04:13.045Z,101425.29
2022-10-12T23:07:02.973Z,101424.60
2022-10-12T23:09:51.530Z,101426.78
2022-10-12T23:12:40.017Z,101420.97
2022-10-12T23:15:28.354Z,101434.59
2022-10-12T23:18:16.650Z,101422.64
2022-10-12T23:21:10.257Z,101417.00
2022-10-12T23:23:59.417Z,101419.34
2022-10-12T23:26:47.649Z,101422.33
2022-10-12T23:29:35.569Z,101416.55
2022-10-12T23:32:23.837Z,101420.34
2022-10-12T23:35:11.952Z,101418.88
2022-10-12T23:38:00.355Z,101416.70
2022-10-12T23:40:48.517Z,101416.37
2022-10-12T23:43:37.239Z,101424.53
2022-10-12T23:46:25.956Z,101433.64
2022-10-12T23:49:16.583Z,101430.32
2022-10-12T23:52:06.843Z,101429.17
2022-10-12T23:54:55.408Z,101428.33
2022-10-12T23:57:47.038Z,101439.13
